createdAt,value
2023-04-16T00:01:56.189Z,3.85
2023-04-16T00:04:23.185Z,3.80
2023-04-16T00:06:49.966Z,3.76
2023-04-16T00:09:16.710Z,3.75
2023-04-16T00:11:43.447Z,3.73
2023-04-16T00:14:10.212Z,3.67
2023-04-16T00:16:38.554Z,3.72
2023-04-16T00:19:05.358Z,3.71
2023-04-16T00:21:32.218Z,3.70
2023-04-16T00:23:58.969Z,3.70
2023-04-16T00:26:25.880Z,3.71
2023-04-16T00:28:52.607Z,3.73
2023-04-16T00:31:29.850Z,3.68
2023-04-16T00:33:56.819Z,3.75
2023-04-16T00:36:30.560Z,3.78
2023-04-16T00:38:57.507Z,3.79
2023-04-16T00:41:24.331Z,3.80
2023-04-16T00:43:51.792Z,3.79
2023-04-16T00:46:20.538Z,3.80
2023-04-16T00:48:47.682Z,3.82
2023-04-16T00:51:14.892Z,3.82
2023-04-16T00:53:41.985Z,3.79
2023-04-16T00:56:09.939Z,3.81
2023-04-16T00:58:36.640Z,3.77
2023-04-16T01:01:03.545Z,3.81
2023-04-16T01:03:49.321Z,3.77
2023-04-16T01:06:19.386Z,3.73
2023-04-16T01:08:46.873Z,3.84
2023-04-16T01:11:15.218Z,3.81
2023-04-16T01:13:42.149Z,3.82
2023-04-16T01:16:11.057Z,3.82
2023-04-16T01:18:38.562Z,3.83
2023-04-16T01:21:05.747Z,3.85
2023-04-16T01:23:32.614Z,3.86
2023-04-16T01:25:59.505Z,3.79
2023-04-16T01:28:26.416Z,3.76
2023-04-16T01:30:53.213Z,3.75
2023-04-16T01:33:22.007Z,3.81
2023-04-16T01:35:48.767Z,3.80
2023-04-16T01:38:15.530Z,3.77
2023-04-16T01:40:42.286Z,3.68
2023-04-16T01:43:09.017Z,3.71
2023-04-16T01:45:36.056Z,3.75
2023-04-16T01:48:03.786Z,3.65
2023-04-16T01:50:31.329Z,3.66
2023-04-16T01:52:58.238Z,3.57
2023-04-16T01:55:25.047Z,3.74
2023-04-16T01:57:51.807Z,3.81
2023-04-16T02:00:18.647Z,3.81
2023-04-16T02:02:45.983Z,3.80
2023-04-16T02:05:12.902Z,3.84
2023-04-16T02:07:39.590Z,3.72
2023-04-16T02:10:07.646Z,3.70
2023-04-16T02:12:34.417Z,3.68
2023-04-16T02:15:01.289Z,3.70
2023-04-16T02:17:28.031Z,3.70
2023-04-16T02:19:54.883Z,3.68
2023-04-16T02:22:21.576Z,3.72
2023-04-16T02:24:48.422Z,3.69
2023-04-16T02:27:15.189Z,3.69
2023-04-16T02:29:41.936Z,3.71
2023-04-16T02:32:08.771Z,3.75
2023-04-16T02:34:35.635Z,3.70
2023-04-16T02:37:02.397Z,3.65
2023-04-16T02:39:29.128Z,3.55
2023-04-16T02:41:56.275Z,3.66
2023-04-16T02:44:23.100Z,3.67
2023-04-16T02:46:49.889Z,3.65
2023-04-16T02:49:16.603Z,3.64
2023-04-16T02:51:43.323Z,3.67
2023-04-16T02:54:10.037Z,3.74
2023-04-16T02:56:36.844Z,3.59
2023-04-16T02:59:03.593Z,3.65
2023-04-16T03:01:30.407Z,3.72
2023-04-16T03:03:57.152Z,3.73
2023-04-16T03:06:24.000Z,3.67
2023-04-16T03:08:50.774Z,3.67
2023-04-16T03:11:17.754Z,3.73
2023-04-16T03:13:44.420Z,3.75
2023-04-16T03:16:11.261Z,3.73
2023-04-16T03:18:37.992Z,3.78
2023-04-16T03:21:05.217Z,3.73
2023-04-16T03:23:32.225Z,3.70
2023-04-16T03:25:58.969Z,3.72
2023-04-16T03:28:26.344Z,3.66
2023-04-16T03:30:53.744Z,3.70
2023-04-16T03:33:21.172Z,3.73
2023-04-16T03:35:47.920Z,3.75
2023-04-16T03:38:14.650Z,3.70
2023-04-16T03:40:41.553Z,3.70
2023-04-16T03:43:08.319Z,3.69
2023-04-16T03:45:35.039Z,3.65
2023-04-16T03:48:01.806Z,3.56
2023-04-16T03:50:28.565Z,3.56
2023-04-16T03:52:55.515Z,3.59
2023-04-16T03:55:22.208Z,3.56
2023-04-16T03:57:48.947Z,3.51
2023-04-16T04:00:15.832Z,3.56
2023-04-16T04:02:42.809Z,3.64
2023-04-16T04:05:09.595Z,3.54
2023-04-16T04:07:36.366Z,3.56
2023-04-16T04:10:03.052Z,3.56
2023-04-16T04:12:29.831Z,3.57
2023-04-16T04:14:56.567Z,3.58
2023-04-16T04:17:23.342Z,3.62
2023-04-16T04:20:00.548Z,3.63
2023-04-16T04:22:28.313Z,3.68
2023-04-16T04:24:54.985Z,3.68
2023-04-16T04:27:22.939Z,3.68
2023-04-16T04:29:49.579Z,3.65
2023-04-16T04:32:16.329Z,3.64
2023-04-16T04:34:42.974Z,3.69
2023-04-16T04:37:09.633Z,3.66
2023-04-16T04:39:36.292Z,3.67
2023-04-16T04:42:03.450Z,3.67
2023-04-16T04:44:30.137Z,3.68
2023-04-16T04:46:56.872Z,3.68
2023-04-16T04:49:23.708Z,3.68
2023-04-16T04:51:50.530Z,3.66
2023-04-16T04:54:17.233Z,3.60
2023-04-16T04:56:45.966Z,3.65
2023-04-16T04:59:12.848Z,3.68
2023-04-16T05:01:39.700Z,3.66
2023-04-16T05:04:06.565Z,3.90
2023-04-16T05:06:33.320Z,3.83
2023-04-16T05:08:59.981Z,3.81
2023-04-16T05:11:26.699Z,3.78
2023-04-16T05:13:53.394Z,3.81
2023-04-16T05:16:20.096Z,3.86
2023-04-16T05:18:46.797Z,3.87
2023-04-16T05:21:13.473Z,3.87
2023-04-16T05:23:40.443Z,3.98
2023-04-16T05:26:07.407Z,3.99
2023-04-16T05:28:34.101Z,4.00
2023-04-16T05:31:00.892Z,4.02
2023-04-16T05:33:27.521Z,4.04
2023-04-16T05:35:54.189Z,4.08
2023-04-16T05:38:20.853Z,4.14
2023-04-16T05:40:47.631Z,4.18
2023-04-16T05:43:14.294Z,4.24
2023-04-16T05:45:41.505Z,4.33
2023-04-16T05:48:09.329Z,4.40
2023-04-16T05:50:36.679Z,4.38
2023-04-16T05:53:06.511Z,4.33
2023-04-16T05:55:33.634Z,4.37
2023-04-16T05:58:00.426Z,4.45
2023-04-16T06:00:28.246Z,4.51
2023-04-16T06:03:03.665Z,4.52
2023-04-16T06:05:30.999Z,4.65
2023-04-16T06:07:57.732Z,4.69
2023-04-16T06:10:24.750Z,4.75
2023-04-16T06:12:51.834Z,4.59
2023-04-16T06:15:18.616Z,4.64
2023-04-16T06:17:45.385Z,4.65
2023-04-16T06:20:12.676Z,4.62
2023-04-16T06:22:39.593Z,4.61
2023-04-16T06:25:06.682Z,4.58
2023-04-16T06:27:33.429Z,4.66
2023-04-16T06:30:00.146Z,4.71
2023-04-16T06:32:27.366Z,4.88
2023-04-16T06:34:54.056Z,4.87
2023-04-16T06:37:21.079Z,5.10
2023-04-16T06:39:47.808Z,5.15
2023-04-16T06:42:14.709Z,5.22
2023-04-16T06:44:41.734Z,5.31
2023-04-16T06:47:08.496Z,5.45
2023-04-16T06:49:35.737Z,5.64
2023-04-16T06:52:05.174Z,5.81
2023-04-16T06:54:32.573Z,5.79
2023-04-16T06:56:59.405Z,5.84
2023-04-16T06:59:26.085Z,5.81
2023-04-16T07:01:53.025Z,5.80
2023-04-16T07:04:19.843Z,5.83
2023-04-16T07:06:46.794Z,5.93
2023-04-16T07:09:13.472Z,6.14
2023-04-16T07:11:40.383Z,5.99
2023-04-16T07:14:07.073Z,6.08
2023-04-16T07:16:33.848Z,6.06
2023-04-16T07:19:00.695Z,6.07
2023-04-16T07:21:27.912Z,5.89
2023-04-16T07:23:54.766Z,6.14
2023-04-16T07:26:21.497Z,6.42
2023-04-16T07:28:48.180Z,6.45
2023-04-16T07:31:14.896Z,6.46
2023-04-16T07:33:41.653Z,6.57
2023-04-16T07:36:08.361Z,6.66
2023-04-16T07:38:35.072Z,6.79
2023-04-16T07:41:02.093Z,6.90
2023-04-16T07:43:28.824Z,6.90
2023-04-16T07:45:55.550Z,6.78
2023-04-16T07:48:22.316Z,6.57
2023-04-16T07:50:50.289Z,6.76
2023-04-16T07:53:17.216Z,6.81
2023-04-16T07:55:43.915Z,7.28
2023-04-16T07:58:10.880Z,8.17
2023-04-16T08:00:37.820Z,7.85
2023-04-16T08:03:04.849Z,7.95
2023-04-16T08:05:31.662Z,8.20
2023-04-16T08:07:58.542Z,7.69
2023-04-16T08:10:25.457Z,8.23
2023-04-16T08:12:52.173Z,8.26
2023-04-16T08:15:18.956Z,8.42
2023-04-16T08:17:45.725Z,8.54
2023-04-16T08:20:15.733Z,8.77
2023-04-16T08:22:46.012Z,9.08
2023-04-16T08:25:12.823Z,9.59
2023-04-16T08:27:39.610Z,9.16
2023-04-16T08:30:07.089Z,9.29
2023-04-16T08:32:33.900Z,9.43
2023-04-16T08:35:00.649Z,9.19
2023-04-16T08:37:27.869Z,9.93
2023-04-16T08:39:54.677Z,9.75
2023-04-16T08:42:32.781Z,9.78
2023-04-16T08:45:15.860Z,9.34
2023-04-16T08:48:02.112Z,9.00
2023-04-16T08:50:29.857Z,8.86
2023-04-16T08:53:00.975Z,8.50
2023-04-16T08:55:37.728Z,8.77
2023-04-16T08:58:35.703Z,8.19
2023-04-16T09:01:03.991Z,8.29
2023-04-16T09:03:35.596Z,8.47
2023-04-16T09:06:04.666Z,8.41
2023-04-16T09:08:32.692Z,8.41
2023-04-16T09:10:59.843Z,8.46
2023-04-16T09:13:27.092Z,8.32
2023-04-16T09:15:54.380Z,8.69
2023-04-16T09:18:21.490Z,8.52
2023-04-16T09:20:49.803Z,8.48
2023-04-16T09:23:16.690Z,8.68
2023-04-16T09:25:43.670Z,8.85
2023-04-16T09:28:11.106Z,8.68
2023-04-16T09:30:37.914Z,8.78
2023-04-16T09:33:24.926Z,8.59
2023-04-16T09:35:53.201Z,8.78
2023-04-16T09:38:20.751Z,8.97
2023-04-16T09:40:50.187Z,9.34
2023-04-16T09:43:18.282Z,9.46
2023-04-16T09:45:51.462Z,9.00
2023-04-16T09:48:34.476Z,8.65
2023-04-16T09:51:01.794Z,8.60
2023-04-16T09:53:30.327Z,8.58
2023-04-16T09:56:05.065Z,8.85
2023-04-16T09:58:32.365Z,9.00
2023-04-16T10:01:03.253Z,8.84
2023-04-16T10:03:34.358Z,9.14
2023-04-16T10:06:06.872Z,9.03
2023-04-16T10:08:33.672Z,9.00
2023-04-16T10:11:01.072Z,8.91
2023-04-16T10:13:31.340Z,8.71
2023-04-16T10:15:58.884Z,8.78
2023-04-16T10:18:25.707Z,8.98
2023-04-16T10:20:52.580Z,9.16
2023-04-16T10:23:21.809Z,9.29
2023-04-16T10:25:52.543Z,9.31
2023-04-16T10:28:19.267Z,8.81
2023-04-16T10:30:52.864Z,9.03
2023-04-16T10:33:25.316Z,8.82
2023-04-16T10:36:04.892Z,9.16
2023-04-16T10:38:34.260Z,9.21
2023-04-16T10:41:03.930Z,9.18
2023-04-16T10:43:32.834Z,9.22
2023-04-16T10:46:24.954Z,9.47
2023-04-16T10:48:54.043Z,9.55
2023-04-16T10:51:28.889Z,9.24
2023-04-16T10:54:09.312Z,9.28
2023-04-16T10:56:37.460Z,9.43
2023-04-16T10:59:09.224Z,9.29
2023-04-16T11:01:38.444Z,9.14
2023-04-16T11:04:20.435Z,9.35
2023-04-16T11:07:11.712Z,9.48
2023-04-16T11:09:47.636Z,9.59
2023-04-16T11:12:16.497Z,9.29
2023-04-16T11:14:43.606Z,9.35
2023-04-16T11:17:10.464Z,9.25
2023-04-16T11:19:38.318Z,9.32
2023-04-16T11:22:05.574Z,9.47
2023-04-16T11:24:33.100Z,9.56
2023-04-16T11:27:00.484Z,9.58
2023-04-16T11:29:27.343Z,9.50
2023-04-16T11:31:55.194Z,9.46
2023-04-16T11:34:22.038Z,9.51
2023-04-16T11:36:50.972Z,9.63
2023-04-16T11:39:18.302Z,9.44
2023-04-16T11:41:46.007Z,9.08
2023-04-16T11:44:23.853Z,9.10
2023-04-16T11:46:51.307Z,9.35
2023-04-16T11:49:18.222Z,9.67
2023-04-16T11:51:47.176Z,9.66
2023-04-16T11:54:21.355Z,9.72
2023-04-16T11:56:49.504Z,9.89
2023-04-16T11:59:18.717Z,9.99
2023-04-16T12:01:58.026Z,10.19
2023-04-16T12:04:26.906Z,10.15
2023-04-16T12:07:09.465Z,10.03
2023-04-16T12:09:41.157Z,10.27
2023-04-16T12:12:30.843Z,10.24
2023-04-16T12:15:00.337Z,9.79
2023-04-16T12:17:27.137Z,10.14
2023-04-16T12:19:58.712Z,10.04
2023-04-16T12:22:36.833Z,10.26
2023-04-16T12:25:08.277Z,10.18
2023-04-16T12:27:52.192Z,10.11
2023-04-16T12:30:22.678Z,10.10
2023-04-16T12:32:52.055Z,10.04
2023-04-16T12:35:32.718Z,9.83
2023-04-16T12:38:00.294Z,9.95
2023-04-16T12:40:27.540Z,9.94
2023-04-16T12:42:55.018Z,9.91
2023-04-16T12:45:22.368Z,9.52
2023-04-16T12:47:50.613Z,9.43
2023-04-16T12:50:18.145Z,9.26
2023-04-16T12:52:45.015Z,9.11
2023-04-16T12:55:12.341Z,9.13
2023-04-16T12:57:39.104Z,9.29
2023-04-16T13:00:06.842Z,9.14
2023-04-16T13:02:34.233Z,8.99
2023-04-16T13:05:00.994Z,9.20
2023-04-16T13:07:28.372Z,8.90
2023-04-16T13:09:55.219Z,8.98
2023-04-16T13:12:21.960Z,8.95
2023-04-16T13:14:48.607Z,8.91
2023-04-16T13:17:15.632Z,8.95
2023-04-16T13:19:42.330Z,9.04
2023-04-16T13:22:09.473Z,8.90
2023-04-16T13:24:36.327Z,8.90
2023-04-16T13:27:03.077Z,8.84
2023-04-16T13:29:30.135Z,8.53
2023-04-16T13:31:57.486Z,8.52
2023-04-16T13:34:24.299Z,8.69
2023-04-16T13:36:51.025Z,8.70
2023-04-16T13:39:17.833Z,8.68
2023-04-16T13:41:44.635Z,8.53
2023-04-16T13:44:11.447Z,8.58
2023-04-16T13:46:38.313Z,8.60
2023-04-16T13:49:05.119Z,8.52
2023-04-16T13:51:32.286Z,8.55
2023-04-16T13:53:59.052Z,8.59
2023-04-16T13:56:26.126Z,8.79
2023-04-16T13:58:52.891Z,8.63
2023-04-16T14:01:19.792Z,8.97
2023-04-16T14:03:46.844Z,8.88
2023-04-16T14:06:15.157Z,8.81
2023-04-16T14:08:41.904Z,8.72
2023-04-16T14:11:09.360Z,8.60
2023-04-16T14:13:36.759Z,8.73
2023-04-16T14:16:03.939Z,8.72
2023-04-16T14:18:30.735Z,8.51
2023-04-16T14:20:58.747Z,8.61
2023-04-16T14:23:25.516Z,8.73
2023-04-16T14:25:52.382Z,8.44
2023-04-16T14:28:20.803Z,8.57
2023-04-16T14:30:47.563Z,8.43
2023-04-16T14:33:14.304Z,8.54
2023-04-16T14:35:41.289Z,8.43
2023-04-16T14:38:08.011Z,8.67
2023-04-16T14:40:34.954Z,8.50
2023-04-16T14:43:02.095Z,8.54
2023-04-16T14:45:31.031Z,8.64
2023-04-16T14:47:58.011Z,8.68
2023-04-16T14:50:24.751Z,8.55
2023-04-16T14:52:51.883Z,8.43
2023-04-16T14:55:18.724Z,8.36
2023-04-16T14:57:45.577Z,8.50
2023-04-16T15:00:13.596Z,8.48
2023-04-16T15:02:40.679Z,8.35
2023-04-16T15:05:09.888Z,8.47
2023-04-16T15:07:37.235Z,8.37
2023-04-16T15:10:04.447Z,8.27
2023-04-16T15:12:31.311Z,8.29
2023-04-16T15:14:59.869Z,8.28
2023-04-16T15:17:26.944Z,8.55
2023-04-16T15:19:53.720Z,8.63
2023-04-16T15:22:20.476Z,8.36
2023-04-16T15:24:47.282Z,8.55
2023-04-16T15:27:14.875Z,8.67
2023-04-16T15:29:41.743Z,8.57
2023-04-16T15:32:08.570Z,8.56
2023-04-16T15:34:35.464Z,8.63
2023-04-16T15:37:02.385Z,8.43
2023-04-16T15:39:29.114Z,8.39
2023-04-16T15:42:00.430Z,8.49
2023-04-16T15:44:28.364Z,8.47
2023-04-16T15:46:55.109Z,8.35
2023-04-16T15:49:21.856Z,8.15
2023-04-16T15:51:48.618Z,8.09
2023-04-16T15:54:15.404Z,8.23
2023-04-16T15:56:42.114Z,8.30
2023-04-16T15:59:09.567Z,8.30
2023-04-16T16:01:36.615Z,8.19
2023-04-16T16:04:03.567Z,8.24
2023-04-16T16:06:30.499Z,8.21
2023-04-16T16:08:57.215Z,8.22
2023-04-16T16:11:23.896Z,8.19
2023-04-16T16:13:50.665Z,8.13
2023-04-16T16:16:19.437Z,8.18
2023-04-16T16:18:46.237Z,8.14
2023-04-16T16:21:13.014Z,8.12
2023-04-16T16:23:39.657Z,8.17
2023-04-16T16:26:06.528Z,8.10
2023-04-16T16:28:33.480Z,8.18
2023-04-16T16:31:01.474Z,8.04
2023-04-16T16:33:28.886Z,8.13
2023-04-16T16:35:55.609Z,8.12
2023-04-16T16:38:22.435Z,8.08
2023-04-16T16:40:49.183Z,8.06
2023-04-16T16:43:16.699Z,8.07
2023-04-16T16:45:43.713Z,8.03
2023-04-16T16:48:10.402Z,7.98
2023-04-16T16:50:37.128Z,7.99
2023-04-16T16:53:03.817Z,7.94
2023-04-16T16:55:31.137Z,7.95
2023-04-16T16:57:58.630Z,7.91
2023-04-16T17:00:25.646Z,7.88
2023-04-16T17:02:52.810Z,7.79
2023-04-16T17:05:19.958Z,7.76
2023-04-16T17:07:46.854Z,7.74
2023-04-16T17:10:20.127Z,7.80
2023-04-16T17:12:48.454Z,7.79
2023-04-16T17:15:15.723Z,7.71
2023-04-16T17:17:42.766Z,7.66
2023-04-16T17:20:11.035Z,7.67
2023-04-16T17:22:38.579Z,7.55
2023-04-16T17:25:07.639Z,7.52
2023-04-16T17:27:34.532Z,7.47
2023-04-16T17:30:02.201Z,7.35
2023-04-16T17:32:29.923Z,7.41
2023-04-16T17:34:56.944Z,7.38
2023-04-16T17:37:23.757Z,7.36
2023-04-16T17:39:51.158Z,7.40
2023-04-16T17:42:18.069Z,7.38
2023-04-16T17:44:44.928Z,7.28
2023-04-16T17:47:11.959Z,7.14
2023-04-16T17:49:38.735Z,7.18
2023-04-16T17:52:05.781Z,7.10
2023-04-16T17:54:32.748Z,7.08
2023-04-16T17:56:59.443Z,7.00
2023-04-16T17:59:26.464Z,6.85
2023-04-16T18:01:53.463Z,6.76
2023-04-16T18:04:20.548Z,6.73
2023-04-16T18:06:47.420Z,6.69
2023-04-16T18:09:14.557Z,6.56
2023-04-16T18:11:41.317Z,6.55
2023-04-16T18:14:10.141Z,6.48
2023-04-16T18:16:37.069Z,6.38
2023-04-16T18:19:03.798Z,6.35
2023-04-16T18:21:31.704Z,6.40
2023-04-16T18:23:58.885Z,6.40
2023-04-16T18:26:25.696Z,6.37
2023-04-16T18:28:52.523Z,6.36
2023-04-16T18:31:21.274Z,6.31
2023-04-16T18:33:55.685Z,6.35
2023-04-16T18:36:24.687Z,6.28
2023-04-16T18:39:00.866Z,6.28
2023-04-16T18:41:29.735Z,6.21
2023-04-16T18:43:57.440Z,6.07
2023-04-16T18:46:25.458Z,6.10
2023-04-16T18:48:52.369Z,6.08
2023-04-16T18:51:19.253Z,6.04
2023-04-16T18:53:46.064Z,6.00
2023-04-16T18:56:13.815Z,5.92
2023-04-16T18:58:40.508Z,5.88
2023-04-16T19:01:11.249Z,5.81
2023-04-16T19:03:38.686Z,5.80
2023-04-16T19:06:06.259Z,5.81
2023-04-16T19:08:33.147Z,5.78
2023-04-16T19:11:00.133Z,5.71
2023-04-16T19:13:27.428Z,5.76
2023-04-16T19:16:02.350Z,5.73
2023-04-16T19:18:29.146Z,5.68
2023-04-16T19:21:00.725Z,5.70
2023-04-16T19:23:29.571Z,5.67
2023-04-16T19:25:57.023Z,5.56
2023-04-16T19:28:24.773Z,5.55
2023-04-16T19:30:52.035Z,5.60
2023-04-16T19:33:22.719Z,5.56
2023-04-16T19:35:49.523Z,5.59
2023-04-16T19:38:16.451Z,5.44
2023-04-16T19:40:47.099Z,5.45
2023-04-16T19:43:15.184Z,5.55
2023-04-16T19:45:48.356Z,5.50
2023-04-16T19:48:15.104Z,5.40
2023-04-16T19:50:42.633Z,5.38
2023-04-16T19:53:23.454Z,5.46
2023-04-16T19:55:52.835Z,5.44
2023-04-16T19:58:20.033Z,5.37
2023-04-16T20:00:47.435Z,5.43
2023-04-16T20:03:14.236Z,5.40
2023-04-16T20:05:40.975Z,5.40
2023-04-16T20:08:07.739Z,5.49
2023-04-16T20:10:34.568Z,5.42
2023-04-16T20:13:01.318Z,5.47
2023-04-16T20:15:28.010Z,5.35
2023-04-16T20:17:56.378Z,5.35
2023-04-16T20:20:23.826Z,5.40
2023-04-16T20:22:50.895Z,5.37
2023-04-16T20:25:19.458Z,5.41
2023-04-16T20:27:46.351Z,5.42
2023-04-16T20:30:13.803Z,5.42
2023-04-16T20:32:40.569Z,5.40
2023-04-16T20:35:10.787Z,5.41
2023-04-16T20:37:38.677Z,5.45
2023-04-16T20:40:08.411Z,5.48
2023-04-16T20:42:35.535Z,5.45
2023-04-16T20:45:02.352Z,5.46
2023-04-16T20:47:29.118Z,5.38
2023-04-16T20:49:55.932Z,5.39
2023-04-16T20:52:22.983Z,5.26
2023-04-16T20:54:52.046Z,5.26
2023-04-16T20:57:19.050Z,5.06
2023-04-16T20:59:45.749Z,5.01
2023-04-16T21:02:12.534Z,4.89
2023-04-16T21:04:39.314Z,5.03
2023-04-16T21:07:06.124Z,5.19
2023-04-16T21:09:32.843Z,5.22
2023-04-16T21:11:59.542Z,5.23
2023-04-16T21:14:26.213Z,5.26
2023-04-16T21:16:52.992Z,5.20
2023-04-16T21:19:20.066Z,5.28
2023-04-16T21:21:47.020Z,5.26
2023-04-16T21:24:13.750Z,5.23
2023-04-16T21:26:40.469Z,5.19
2023-04-16T21:29:07.148Z,5.23
2023-04-16T21:31:33.959Z,5.22
2023-04-16T21:34:00.806Z,5.21
2023-04-16T21:36:27.863Z,5.16
2023-04-16T21:38:54.555Z,5.30
2023-04-16T21:41:21.296Z,5.13
2023-04-16T21:43:48.007Z,5.06
2023-04-16T21:46:14.763Z,5.12
2023-04-16T21:48:41.610Z,5.21
2023-04-16T21:51:08.503Z,5.22
2023-04-16T21:53:35.427Z,5.16
2023-04-16T21:56:02.277Z,5.15
2023-04-16T21:58:29.076Z,5.11
2023-04-16T22:00:55.958Z,5.13
2023-04-16T22:03:28.221Z,5.13
2023-04-16T22:06:00.967Z,5.11
2023-04-16T22:08:31.422Z,5.15
2023-04-16T22:11:02.230Z,5.19
2023-04-16T22:13:32.423Z,5.25
2023-04-16T22:16:02.762Z,5.18
2023-04-16T22:18:33.000Z,5.19
2023-04-16T22:21:00.231Z,5.16
2023-04-16T22:23:27.016Z,5.13
2023-04-16T22:25:54.873Z,5.16
2023-04-16T22:28:21.688Z,5.18
2023-04-16T22:30:48.476Z,5.20
2023-04-16T22:33:15.247Z,5.18
2023-04-16T22:35:42.233Z,5.17
2023-04-16T22:38:09.057Z,5.17
2023-04-16T22:40:35.823Z,5.12
2023-04-16T22:43:02.528Z,5.19
2023-04-16T22:45:29.425Z,5.16
2023-04-16T22:47:56.132Z,5.22
2023-04-16T22:50:23.289Z,5.16
2023-04-16T22:52:49.987Z,5.20
2023-04-16T22:55:16.906Z,5.08
2023-04-16T22:57:43.537Z,5.07
2023-04-16T23:00:15.914Z,5.08
2023-04-16T23:02:43.187Z,5.11
2023-04-16T23:05:10.618Z,5.11
2023-04-16T23:07:37.544Z,5.16
2023-04-16T23:10:04.713Z,5.20
2023-04-16T23:12:31.390Z,5.24
2023-04-16T23:14:58.413Z,5.16
2023-04-16T23:17:25.193Z,5.21
2023-04-16T23:19:51.971Z,5.23
2023-04-16T23:22:18.655Z,5.20
2023-04-16T23:24:45.864Z,5.13
2023-04-16T23:27:12.656Z,5.14
2023-04-16T23:29:39.383Z,5.19
2023-04-16T23:32:06.061Z,5.19
2023-04-16T23:34:32.862Z,5.19
2023-04-16T23:36:59.546Z,5.17
2023-04-16T23:39:26.365Z,5.11
2023-04-16T23:41:53.073Z,5.14
2023-04-16T23:44:20.020Z,5.18
2023-04-16T23:46:46.921Z,5.18
2023-04-16T23:49:13.688Z,5.17
2023-04-16T23:51:40.364Z,5.13
2023-04-16T23:54:07.180Z,5.17
2023-04-16T23:56:33.902Z,5.22
2023-04-16T23:59:00.628Z,5.22
